sensor_id;sensor_type;location;lat;lon;timestamp;pressure;altitude;pressure_sealevel;temperature;humidity
58757;BME280;44527;47.460;19.016;2022-09-01T00:02:37;100263.87;;;17.61;87.24
58757;BME280;44527;47.460;19.016;2022-09-01T00:05:40;100274.19;;;17.64;87.91
58757;BME280;44527;47.460;19.016;2022-09-01T00:08:42;100273.78;;;17.59;89.86
58757;BME280;44527;47.460;19.016;2022-09-01T00:11:48;100279.44;;;17.46;89.01
58757;BME280;44527;47.460;19.016;2022-09-01T00:14:51;100288.72;;;17.32;87.09
58757;BME280;44527;47.460;19.016;2022-09-01T00:17:54;100294.31;;;17.29;88.36
58757;BME280;44527;47.460;19.016;2022-09-01T00:20:57;100297.56;;;17.23;89.22
58757;BME280;44527;47.460;19.016;2022-09-01T00:24:00;100303.16;;;17.20;89.92
58757;BME280;44527;47.460;19.016;2022-09-01T00:27:03;100307.78;;;17.18;89.55
58757;BME280;44527;47.460;19.016;2022-09-01T00:30:06;100311.56;;;17.15;88.82
58757;BME280;44527;47.460;19.016;2022-09-01T00:33:08;100314.91;;;17.08;90.01
58757;BME280;44527;47.460;19.016;2022-09-01T00:36:11;100314.19;;;17.15;90.05
58757;BME280;44527;47.460;19.016;2022-09-01T00:39:13;100318.41;;;17.08;86.72
58757;BME280;44527;47.460;19.016;2022-09-01T00:42:16;100313.69;;;16.92;88.23
58757;BME280;44527;47.460;19.016;2022-09-01T00:45:20;100315.53;;;16.72;89.32
58757;BME280;44527;47.460;19.016;2022-09-01T00:48:24;100325.28;;;16.72;91.63
58757;BME280;44527;47.460;19.016;2022-09-01T00:51:30;100325.03;;;16.65;92.59
58757;BME280;44527;47.460;19.016;2022-09-01T00:54:38;100324.06;;;16.57;96.24
58757;BME280;44527;47.460;19.016;2022-09-01T00:57:42;100326.28;;;16.51;97.21
58757;BME280;44527;47.460;19.016;2022-09-01T01:00:45;100322.66;;;16.62;99.65
58757;BME280;44527;47.460;19.016;2022-09-01T01:03:50;100335.47;;;16.67;99.67
58757;BME280;44527;47.460;19.016;2022-09-01T01:06:56;100331.72;;;16.69;99.02
58757;BME280;44527;47.460;19.016;2022-09-01T01:10:05;100327.25;;;16.50;97.06
58757;BME280;44527;47.460;19.016;2022-09-01T01:13:12;100332.28;;;16.53;99.35
58757;BME280;44527;47.460;19.016;2022-09-01T01:16:14;100330.47;;;16.44;100.00
58757;BME280;44527;47.460;19.016;2022-09-01T01:19:25;100340.34;;;16.52;100.00
58757;BME280;44527;47.460;19.016;2022-09-01T01:26:11;100343.16;;;16.41;100.00
58757;BME280;44527;47.460;19.016;2022-09-01T01:29:15;100338.97;;;16.38;100.00
58757;BME280;44527;47.460;19.016;2022-09-01T01:32:19;100325.28;;;16.43;100.00
58757;BME280;44527;47.460;19.016;2022-09-01T01:35:22;100335.06;;;16.52;100.00
58757;BME280;44527;47.460;19.016;2022-09-01T01:38:27;100331.56;;;16.51;100.00
58757;BME280;44527;47.460;19.016;2022-09-01T01:41:32;100334.50;;;16.48;100.00
58757;BME280;44527;47.460;19.016;2022-09-01T01:44:37;100340.34;;;16.42;100.00
58757;BME280;44527;47.460;19.016;2022-09-01T01:47:40;100334.09;;;16.53;100.00
58757;BME280;44527;47.460;19.016;2022-09-01T01:50:43;100329.91;;;16.50;100.00
58757;BME280;44527;47.460;19.016;2022-09-01T01:53:47;100329.06;;;16.40;100.00
58757;BME280;44527;47.460;19.016;2022-09-01T01:56:54;100326.28;;;16.42;100.00
58757;BME280;44527;47.460;19.016;2022-09-01T01:59:56;100331.03;;;16.48;100.00
58757;BME280;44527;47.460;19.016;2022-09-01T02:02:59;100319.72;;;16.46;100.00
58757;BME280;44527;47.460;19.016;2022-09-01T02:06:01;100313.19;;;16.50;100.00
58757;BME280;44527;47.460;19.016;2022-09-01T02:09:08;100302.84;;;16.57;100.00
58757;BME280;44527;47.460;19.016;2022-09-01T02:12:12;100300.75;;;16.60;100.00
58757;BME280;44527;47.460;19.016;2022-09-01T02:15:18;100294.75;;;16.48;100.00
58757;BME280;44527;47.460;19.016;2022-09-01T02:18:28;100291.28;;;16.48;100.00
58757;BME280;44527;47.460;19.016;2022-09-01T02:21:32;100276.75;;;16.62;100.00
58757;BME280;44527;47.460;19.016;2022-09-01T02:24:34;100284.72;;;16.52;100.00
58757;BME280;44527;47.460;19.016;2022-09-01T02:27:37;100284.97;;;16.59;100.00
58757;BME280;44527;47.460;19.016;2022-09-01T02:30:42;100288.78;;;16.56;100.00
58757;BME280;44527;47.460;19.016;2022-09-01T02:33:46;100287.53;;;16.50;100.00
58757;BME280;44527;47.460;19.016;2022-09-01T02:36:52;100287.81;;;16.38;100.00
58757;BME280;44527;47.460;19.016;2022-09-01T02:39:54;100280.00;;;16.26;97.92
58757;BME280;44527;47.460;19.016;2022-09-01T02:42:59;100280.84;;;16.17;99.71
58757;BME280;44527;47.460;19.016;2022-09-01T02:46:02;100272.34;;;16.14;100.00
58757;BME280;44527;47.460;19.016;2022-09-01T02:49:18;100263.69;;;16.12;100.00
58757;BME280;44527;47.460;19.016;2022-09-01T02:52:22;100277.63;;;16.04;100.00
58757;BME280;44527;47.460;19.016;2022-09-01T02:55:24;100276.38;;;16.18;98.11
58757;BME280;44527;47.460;19.016;2022-09-01T02:58:28;100272.62;;;16.11;97.82
58757;BME280;44527;47.460;19.016;2022-09-01T03:01:31;100269.53;;;16.15;100.00
58757;BME280;44527;47.460;19.016;2022-09-01T03:04:35;100256.84;;;16.09;99.77
58757;BME280;44527;47.460;19.016;2022-09-01T03:07:37;100263.84;;;16.10;100.00
58757;BME280;44527;47.460;19.016;2022-09-01T03:10:44;100261.31;;;16.08;99.94
58757;BME280;44527;47.460;19.016;2022-09-01T03:13:47;100270.25;;;16.07;100.00
58757;BME280;44527;47.460;19.016;2022-09-01T03:16:50;100250.16;;;16.05;100.00
58757;BME280;44527;47.460;19.016;2022-09-01T03:19:53;100246.41;;;16.07;100.00
58757;BME280;44527;47.460;19.016;2022-09-01T03:22:57;100251.28;;;16.02;100.00
58757;BME280;44527;47.460;19.016;2022-09-01T03:26:00;100251.72;;;15.98;99.05
58757;BME280;44527;47.460;19.016;2022-09-01T03:29:03;100249.59;;;15.82;96.46
58757;BME280;44527;47.460;19.016;2022-09-01T03:32:05;100267.97;;;15.74;99.87
58757;BME280;44527;47.460;19.016;2022-09-01T03:35:08;100268.53;;;15.87;99.58
58757;BME280;44527;47.460;19.016;2022-09-01T03:38:11;100283.31;;;15.90;96.91
58757;BME280;44527;47.460;19.016;2022-09-01T03:41:17;100287.34;;;15.84;98.58
58757;BME280;44527;47.460;19.016;2022-09-01T03:44:19;100284.41;;;15.77;99.56
58757;BME280;44527;47.460;19.016;2022-09-01T03:47:22;100283.84;;;15.83;99.31
58757;BME280;44527;47.460;19.016;2022-09-01T03:50:25;100277.03;;;15.81;98.12
58757;BME280;44527;47.460;19.016;2022-09-01T03:53:35;100277.59;;;15.84;93.58
58757;BME280;44527;47.460;19.016;2022-09-01T03:56:41;100267.16;;;15.83;97.10
58757;BME280;44527;47.460;19.016;2022-09-01T03:59:46;100265.72;;;15.69;93.46
58757;BME280;44527;47.460;19.016;2022-09-01T04:02:52;100257.66;;;15.80;95.59
58757;BME280;44527;47.460;19.016;2022-09-01T04:06:00;100255.59;;;15.84;94.68
58757;BME280;44527;47.460;19.016;2022-09-01T04:09:03;100265.88;;;15.77;99.10
58757;BME280;44527;47.460;19.016;2022-09-01T04:12:06;100258.22;;;15.74;96.75
58757;BME280;44527;47.460;19.016;2022-09-01T04:15:13;100258.28;;;15.63;97.26
58757;BME280;44527;47.460;19.016;2022-09-01T04:18:16;100268.03;;;15.62;97.52
58757;BME280;44527;47.460;19.016;2022-09-01T04:21:22;100270.97;;;15.59;99.32
58757;BME280;44527;47.460;19.016;2022-09-01T04:24:27;100270.78;;;15.51;97.33
58757;BME280;44527;47.460;19.016;2022-09-01T04:27:30;100278.59;;;15.53;99.52
58757;BME280;44527;47.460;19.016;2022-09-01T04:30:33;100264.28;;;15.55;100.00
58757;BME280;44527;47.460;19.016;2022-09-01T04:33:38;100256.19;;;15.57;100.00
58757;BME280;44527;47.460;19.016;2022-09-01T04:36:42;100253.53;;;15.47;100.00
58757;BME280;44527;47.460;19.016;2022-09-01T04:39:50;100257.69;;;15.40;100.00
58757;BME280;44527;47.460;19.016;2022-09-01T04:42:58;100278.25;;;15.36;100.00
58757;BME280;44527;47.460;19.016;2022-09-01T04:46:01;100273.12;;;15.35;100.00
58757;BME280;44527;47.460;19.016;2022-09-01T04:49:05;100276.19;;;15.40;100.00
58757;BME280;44527;47.460;19.016;2022-09-01T04:52:14;100275.75;;;15.35;100.00
58757;BME280;44527;47.460;19.016;2022-09-01T04:55:17;100274.63;;;15.28;100.00
58757;BME280;44527;47.460;19.016;2022-09-01T04:58:19;100271.25;;;15.26;100.00
58757;BME280;44527;47.460;19.016;2022-09-01T05:01:25;100269.72;;;15.23;100.00
58757;BME280;44527;47.460;19.016;2022-09-01T05:04:31;100276.84;;;15.32;100.00
58757;BME280;44527;47.460;19.016;2022-09-01T05:07:35;100277.28;;;15.28;100.00
58757;BME280;44527;47.460;19.016;2022-09-01T05:10:44;100275.84;;;15.24;100.00
58757;BME280;44527;47.460;19.016;2022-09-01T05:13:48;100281.97;;;15.24;100.00
58757;BME280;44527;47.460;19.016;2022-09-01T05:16:56;100283.25;;;15.30;100.00
58757;BME280;44527;47.460;19.016;2022-09-01T05:19:59;100288.94;;;15.25;100.00
58757;BME280;44527;47.460;19.016;2022-09-01T05:23:01;100290.91;;;15.33;100.00
58757;BME280;44527;47.460;19.016;2022-09-01T05:26:05;100300.09;;;15.29;100.00
58757;BME280;44527;47.460;19.016;2022-09-01T05:29:20;100295.44;;;15.21;100.00
58757;BME280;44527;47.460;19.016;2022-09-01T05:32:23;100296.03;;;15.25;100.00
58757;BME280;44527;47.460;19.016;2022-09-01T05:35:27;100279.78;;;15.39;100.00
58757;BME280;44527;47.460;19.016;2022-09-01T05:38:34;100288.16;;;15.34;100.00
58757;BME280;44527;47.460;19.016;2022-09-01T05:41:38;100280.63;;;15.39;100.00
58757;BME280;44527;47.460;19.016;2022-09-01T05:44:42;100277.78;;;15.52;100.00
58757;BME280;44527;47.460;19.016;2022-09-01T05:47:46;100290.12;;;15.52;100.00
58757;BME280;44527;47.460;19.016;2022-09-01T05:50:50;100283.91;;;15.53;100.00
58757;BME280;44527;47.460;19.016;2022-09-01T05:53:57;100292.62;;;15.74;100.00
58757;BME280;44527;47.460;19.016;2022-09-01T05:57:04;100284.97;;;15.81;100.00
58757;BME280;44527;47.460;19.016;2022-09-01T06:00:28;100287.38;;;15.53;100.00
58757;BME280;44527;47.460;19.016;2022-09-01T06:03:36;100293.06;;;15.89;100.00
58757;BME280;44527;47.460;19.016;2022-09-01T06:06:43;100296.75;;;15.67;100.00
58757;BME280;44527;47.460;19.016;2022-09-01T06:10:08;100298.84;;;15.33;100.00
58757;BME280;44527;47.460;19.016;2022-09-01T06:13:10;100298.22;;;15.50;100.00
58757;BME280;44527;47.460;19.016;2022-09-01T06:16:17;100295.16;;;15.55;100.00
58757;BME280;44527;47.460;19.016;2022-09-01T06:19:20;100292.44;;;15.35;100.00
58757;BME280;44527;47.460;19.016;2022-09-01T06:22:25;100292.88;;;15.31;100.00
58757;BME280;44527;47.460;19.016;2022-09-01T06:25:29;100288.22;;;15.63;100.00
58757;BME280;44527;47.460;19.016;2022-09-01T06:28:32;100293.59;;;15.73;100.00
58757;BME280;44527;47.460;19.016;2022-09-01T06:31:36;100294.84;;;15.79;100.00
58757;BME280;44527;47.460;19.016;2022-09-01T06:34:42;100293.34;;;15.76;100.00
58757;BME280;44527;47.460;19.016;2022-09-01T06:37:46;100297.34;;;15.71;100.00
58757;BME280;44527;47.460;19.016;2022-09-01T06:40:59;100305.59;;;15.87;100.00
58757;BME280;44527;47.460;19.016;2022-09-01T06:44:02;100309.94;;;15.98;99.53
58757;BME280;44527;47.460;19.016;2022-09-01T06:47:04;100311.87;;;15.86;100.00
58757;BME280;44527;47.460;19.016;2022-09-01T06:50:12;100312.56;;;15.88;100.00
58757;BME280;44527;47.460;19.016;2022-09-01T06:53:36;100314.87;;;15.72;97.50
58757;BME280;44527;47.460;19.016;2022-09-01T06:56:40;100309.97;;;16.56;97.17
58757;BME280;44527;47.460;19.016;2022-09-01T06:59:53;100311.66;;;16.47;92.50
58757;BME280;44527;47.460;19.016;2022-09-01T07:02:56;100318.06;;;16.45;95.62
58757;BME280;44527;47.460;19.016;2022-09-01T07:06:04;100317.75;;;16.19;97.23
58757;BME280;44527;47.460;19.016;2022-09-01T07:09:10;100322.91;;;16.20;99.50
58757;BME280;44527;47.460;19.016;2022-09-01T07:12:25;100325.00;;;16.07;99.50
58757;BME280;44527;47.460;19.016;2022-09-01T07:15:27;100330.44;;;16.15;98.63
58757;BME280;44527;47.460;19.016;2022-09-01T07:18:52;100340.09;;;16.36;100.00
58757;BME280;44527;47.460;19.016;2022-09-01T07:22:00;100336.31;;;16.38;98.29
58757;BME280;44527;47.460;19.016;2022-09-01T07:25:11;100334.38;;;16.50;93.96
58757;BME280;44527;47.460;19.016;2022-09-01T07:28:16;100333.53;;;16.59;95.42
58757;BME280;44527;47.460;19.016;2022-09-01T07:31:25;100340.62;;;16.59;93.47
58757;BME280;44527;47.460;19.016;2022-09-01T07:34:48;100346.34;;;16.64;93.67
58757;BME280;44527;47.460;19.016;2022-09-01T07:37:51;100343.00;;;16.52;98.57
58757;BME280;44527;47.460;19.016;2022-09-01T07:41:14;100342.19;;;16.81;91.46
58757;BME280;44527;47.460;19.016;2022-09-01T07:44:38;100352.53;;;17.31;89.96
58757;BME280;44527;47.460;19.016;2022-09-01T07:47:44;100349.03;;;17.67;85.40
58757;BME280;44527;47.460;19.016;2022-09-01T07:50:55;100343.09;;;17.18;91.04
58757;BME280;44527;47.460;19.016;2022-09-01T07:54:18;100347.31;;;17.11;92.36
58757;BME280;44527;47.460;19.016;2022-09-01T07:57:20;100348.16;;;17.02;86.09
58757;BME280;44527;47.460;19.016;2022-09-01T08:00:24;100340.94;;;16.85;85.63
58757;BME280;44527;47.460;19.016;2022-09-01T08:03:33;100342.53;;;17.15;90.61
58757;BME280;44527;47.460;19.016;2022-09-01T08:06:35;100337.38;;;17.13;94.79
58757;BME280;44527;47.460;19.016;2022-09-01T08:09:41;100343.66;;;17.12;93.79
58757;BME280;44527;47.460;19.016;2022-09-01T08:12:46;100339.19;;;17.13;89.89
58757;BME280;44527;47.460;19.016;2022-09-01T08:15:57;100342.34;;;17.36;91.38
58757;BME280;44527;47.460;19.016;2022-09-01T08:19:09;100345.72;;;17.28;90.23
58757;BME280;44527;47.460;19.016;2022-09-01T08:22:19;100348.31;;;17.38;88.37
58757;BME280;44527;47.460;19.016;2022-09-01T08:25:25;100344.72;;;17.39;88.09
58757;BME280;44527;47.460;19.016;2022-09-01T08:28:28;100350.03;;;17.29;87.79
58757;BME280;44527;47.460;19.016;2022-09-01T08:31:31;100361.03;;;17.34;91.90
58757;BME280;44527;47.460;19.016;2022-09-01T08:34:34;100354.91;;;17.71;88.23
58757;BME280;44527;47.460;19.016;2022-09-01T08:37:38;100353.56;;;17.95;86.99
58757;BME280;44527;47.460;19.016;2022-09-01T08:40:42;100347.12;;;18.15;87.02
58757;BME280;44527;47.460;19.016;2022-09-01T08:44:07;100352.13;;;18.00;90.65
58757;BME280;44527;47.460;19.016;2022-09-01T08:47:13;100357.94;;;18.31;89.07
58757;BME280;44527;47.460;19.016;2022-09-01T08:50:17;100361.81;;;18.55;88.22
58757;BME280;44527;47.460;19.016;2022-09-01T08:53:42;100366.03;;;18.30;82.55
58757;BME280;44527;47.460;19.016;2022-09-01T08:56:51;100361.50;;;18.76;81.36
58757;BME280;44527;47.460;19.016;2022-09-01T08:59:59;100359.56;;;19.04;77.86
58757;BME280;44527;47.460;19.016;2022-09-01T09:03:14;100366.50;;;19.23;75.07
58757;BME280;44527;47.460;19.016;2022-09-01T09:06:22;100363.25;;;19.37;71.81
58757;BME280;44527;47.460;19.016;2022-09-01T09:09:44;100364.50;;;19.25;72.29
58757;BME280;44527;47.460;19.016;2022-09-01T09:16:15;100365.19;;;19.87;76.77
58757;BME280;44527;47.460;19.016;2022-09-01T09:19:24;100364.16;;;19.72;75.26
58757;BME280;44527;47.460;19.016;2022-09-01T09:22:29;100360.19;;;19.92;74.32
58757;BME280;44527;47.460;19.016;2022-09-01T09:25:32;100347.00;;;20.33;69.91
58757;BME280;44527;47.460;19.016;2022-09-01T09:28:35;100355.13;;;20.15;68.35
58757;BME280;44527;47.460;19.016;2022-09-01T09:31:40;100347.69;;;20.60;68.65
58757;BME280;44527;47.460;19.016;2022-09-01T09:34:51;100340.16;;;20.31;68.74
58757;BME280;44527;47.460;19.016;2022-09-01T09:37:54;100337.34;;;20.40;71.54
58757;BME280;44527;47.460;19.016;2022-09-01T09:44:26;100330.03;;;20.59;62.32
58757;BME280;44527;47.460;19.016;2022-09-01T09:47:42;100329.19;;;20.42;64.42
58757;BME280;44527;47.460;19.016;2022-09-01T09:50:46;100324.56;;;20.60;65.37
58757;BME280;44527;47.460;19.016;2022-09-01T09:53:51;100324.22;;;20.88;64.68
58757;BME280;44527;47.460;19.016;2022-09-01T10:00:23;100321.31;;;21.14;61.98
58757;BME280;44527;47.460;19.016;2022-09-01T10:03:40;100316.59;;;21.32;63.58
58757;BME280;44527;47.460;19.016;2022-09-01T10:06:43;100325.78;;;21.38;62.36
58757;BME280;44527;47.460;19.016;2022-09-01T10:09:51;100324.44;;;21.42;61.60
58757;BME280;44527;47.460;19.016;2022-09-01T10:12:54;100321.59;;;21.52;60.83
58757;BME280;44527;47.460;19.016;2022-09-01T10:16:01;100324.84;;;21.70;60.21
58757;BME280;44527;47.460;19.016;2022-09-01T10:19:11;100327.81;;;21.75;56.66
58757;BME280;44527;47.460;19.016;2022-09-01T10:22:18;100321.13;;;21.79;52.18
58757;BME280;44527;47.460;19.016;2022-09-01T10:25:25;100323.56;;;21.89;54.95
58757;BME280;44527;47.460;19.016;2022-09-01T10:28:31;100325.78;;;21.86;55.37
58757;BME280;44527;47.460;19.016;2022-09-01T10:31:35;100316.94;;;22.08;56.61
58757;BME280;44527;47.460;19.016;2022-09-01T10:34:39;100310.50;;;21.94;58.42
58757;BME280;44527;47.460;19.016;2022-09-01T10:37:44;100314.03;;;21.95;57.29
58757;BME280;44527;47.460;19.016;2022-09-01T10:40:49;100311.50;;;22.24;57.70
58757;BME280;44527;47.460;19.016;2022-09-01T10:44:10;100308.56;;;22.19;52.21
58757;BME280;44527;47.460;19.016;2022-09-01T10:50:31;100301.59;;;22.56;51.64
58757;BME280;44527;47.460;19.016;2022-09-01T10:56:49;100305.56;;;22.60;49.51
58757;BME280;44527;47.460;19.016;2022-09-01T11:00:28;100300.88;;;22.39;49.24
58757;BME280;44527;47.460;19.016;2022-09-01T11:03:49;100300.88;;;22.39;49.38
58757;BME280;44527;47.460;19.016;2022-09-01T11:07:03;100300.63;;;22.49;48.44
58757;BME280;44527;47.460;19.016;2022-09-01T11:13:47;100298.78;;;22.87;48.75
58757;BME280;44527;47.460;19.016;2022-09-01T11:20:38;100295.28;;;22.87;48.87
58757;BME280;44527;47.460;19.016;2022-09-01T11:23:41;100289.50;;;22.98;48.21
58757;BME280;44527;47.460;19.016;2022-09-01T11:26:47;100293.66;;;23.15;46.48
58757;BME280;44527;47.460;19.016;2022-09-01T11:29:58;100284.97;;;23.28;45.50
58757;BME280;44527;47.460;19.016;2022-09-01T11:33:12;100290.78;;;23.32;45.51
58757;BME280;44527;47.460;19.016;2022-09-01T11:36:54;100297.78;;;23.48;43.98
58757;BME280;44527;47.460;19.016;2022-09-01T11:39:59;100296.97;;;23.47;45.48
58757;BME280;44527;47.460;19.016;2022-09-01T11:43:13;100290.12;;;23.74;43.91
58757;BME280;44527;47.460;19.016;2022-09-01T11:46:24;100290.84;;;23.83;43.06
58757;BME280;44527;47.460;19.016;2022-09-01T11:49:36;100280.25;;;23.96;42.40
58757;BME280;44527;47.460;19.016;2022-09-01T11:52:40;100284.87;;;24.02;41.08
58757;BME280;44527;47.460;19.016;2022-09-01T11:55:51;100290.19;;;23.81;39.93
58757;BME280;44527;47.460;19.016;2022-09-01T11:58:54;100286.69;;;23.66;42.75
58757;BME280;44527;47.460;19.016;2022-09-01T12:01:57;100280.06;;;23.61;39.18
58757;BME280;44527;47.460;19.016;2022-09-01T12:05:02;100287.06;;;23.62;43.95
58757;BME280;44527;47.460;19.016;2022-09-01T12:08:12;100281.72;;;23.77;40.45
58757;BME280;44527;47.460;19.016;2022-09-01T12:11:22;100271.59;;;23.94;39.92
58757;BME280;44527;47.460;19.016;2022-09-01T12:14:26;100278.53;;;23.89;40.36
58757;BME280;44527;47.460;19.016;2022-09-01T12:17:52;100267.87;;;23.95;40.55
58757;BME280;44527;47.460;19.016;2022-09-01T12:20:57;100266.63;;;24.34;38.28
58757;BME280;44527;47.460;19.016;2022-09-01T12:24:19;100262.00;;;24.43;38.57
58757;BME280;44527;47.460;19.016;2022-09-01T12:27:23;100261.37;;;24.47;36.58
58757;BME280;44527;47.460;19.016;2022-09-01T12:30:26;100270.03;;;24.71;37.08
58757;BME280;44527;47.460;19.016;2022-09-01T12:33:29;100266.56;;;24.49;37.56
58757;BME280;44527;47.460;19.016;2022-09-01T12:36:34;100265.47;;;24.22;36.96
58757;BME280;44527;47.460;19.016;2022-09-01T12:39:42;100264.72;;;24.28;39.10
58757;BME280;44527;47.460;19.016;2022-09-01T12:42:51;100263.41;;;24.24;36.66
58757;BME280;44527;47.460;19.016;2022-09-01T12:45:53;100272.09;;;24.26;38.14
58757;BME280;44527;47.460;19.016;2022-09-01T12:49:15;100263.19;;;24.19;36.95
58757;BME280;44527;47.460;19.016;2022-09-01T12:55:34;100254.16;;;24.48;38.50
58757;BME280;44527;47.460;19.016;2022-09-01T12:59:22;100258.69;;;24.26;36.42
58757;BME280;44527;47.460;19.016;2022-09-01T13:02:42;100252.84;;;24.16;36.84
58757;BME280;44527;47.460;19.016;2022-09-01T13:05:48;100254.16;;;24.05;36.25
58757;BME280;44527;47.460;19.016;2022-09-01T13:08:53;100254.81;;;24.07;37.53
58757;BME280;44527;47.460;19.016;2022-09-01T13:12:09;100251.38;;;24.13;37.44
58757;BME280;44527;47.460;19.016;2022-09-01T13:15:12;100245.88;;;24.21;37.06
58757;BME280;44527;47.460;19.016;2022-09-01T13:18:17;100241.97;;;24.02;36.47
58757;BME280;44527;47.460;19.016;2022-09-01T13:21:20;100245.31;;;24.04;36.59
58757;BME280;44527;47.460;19.016;2022-09-01T13:24:22;100240.91;;;23.97;35.94
58757;BME280;44527;47.460;19.016;2022-09-01T13:27:31;100241.19;;;24.08;35.74
58757;BME280;44527;47.460;19.016;2022-09-01T13:30:34;100242.16;;;24.22;37.79
58757;BME280;44527;47.460;19.016;2022-09-01T13:33:37;100244.37;;;24.40;37.11
58757;BME280;44527;47.460;19.016;2022-09-01T13:36:59;100249.06;;;24.53;36.16
58757;BME280;44527;47.460;19.016;2022-09-01T13:40:04;100247.63;;;24.57;36.19
58757;BME280;44527;47.460;19.016;2022-09-01T13:43:15;100258.53;;;24.77;35.31
58757;BME280;44527;47.460;19.016;2022-09-01T13:46:18;100247.94;;;24.69;35.03
58757;BME280;44527;47.460;19.016;2022-09-01T13:49:20;100248.72;;;24.63;35.53
58757;BME280;44527;47.460;19.016;2022-09-01T13:52:47;100248.38;;;24.72;34.37
58757;BME280;44527;47.460;19.016;2022-09-01T13:55:56;100253.56;;;24.74;34.63
58757;BME280;44527;47.460;19.016;2022-09-01T13:59:04;100254.50;;;24.66;33.51
58757;BME280;44527;47.460;19.016;2022-09-01T14:02:07;100250.00;;;24.45;32.80
58757;BME280;44527;47.460;19.016;2022-09-01T14:05:10;100253.22;;;24.34;34.53
58757;BME280;44527;47.460;19.016;2022-09-01T14:08:14;100259.34;;;24.28;32.29
58757;BME280;44527;47.460;19.016;2022-09-01T14:11:18;100255.19;;;24.47;34.13
58757;BME280;44527;47.460;19.016;2022-09-01T14:14:21;100252.03;;;24.65;33.20
58757;BME280;44527;47.460;19.016;2022-09-01T14:17:24;100251.34;;;24.56;35.88
58757;BME280;44527;47.460;19.016;2022-09-01T14:20:31;100250.31;;;24.36;34.35
58757;BME280;44527;47.460;19.016;2022-09-01T14:23:38;100244.97;;;24.36;34.51
58757;BME280;44527;47.460;19.016;2022-09-01T14:26:40;100248.84;;;24.33;36.24
58757;BME280;44527;47.460;19.016;2022-09-01T14:29:48;100251.03;;;24.23;36.34
58757;BME280;44527;47.460;19.016;2022-09-01T14:32:55;100256.28;;;24.31;36.10
58757;BME280;44527;47.460;19.016;2022-09-01T14:36:00;100243.25;;;24.28;35.48
58757;BME280;44527;47.460;19.016;2022-09-01T14:39:04;100243.87;;;24.30;33.90
58757;BME280;44527;47.460;19.016;2022-09-01T14:42:07;100254.75;;;24.22;34.96
58757;BME280;44527;47.460;19.016;2022-09-01T14:45:12;100254.69;;;24.15;34.88
58757;BME280;44527;47.460;19.016;2022-09-01T14:48:17;100260.13;;;24.22;35.77
58757;BME280;44527;47.460;19.016;2022-09-01T14:51:27;100258.13;;;24.30;34.91
58757;BME280;44527;47.460;19.016;2022-09-01T14:54:50;100263.56;;;24.16;34.72
58757;BME280;44527;47.460;19.016;2022-09-01T14:57:52;100261.13;;;23.99;35.84
58757;BME280;44527;47.460;19.016;2022-09-01T15:00:56;100266.78;;;23.90;35.27
58757;BME280;44527;47.460;19.016;2022-09-01T15:04:19;100263.25;;;24.04;36.62
58757;BME280;44527;47.460;19.016;2022-09-01T15:07:23;100267.25;;;24.15;35.38
58757;BME280;44527;47.460;19.016;2022-09-01T15:10:25;100261.06;;;24.14;35.71
58757;BME280;44527;47.460;19.016;2022-09-01T15:13:28;100261.56;;;23.81;34.18
58757;BME280;44527;47.460;19.016;2022-09-01T15:16:30;100266.47;;;23.78;35.48
58757;BME280;44527;47.460;19.016;2022-09-01T15:19:36;100267.75;;;23.67;35.95
58757;BME280;44527;47.460;19.016;2022-09-01T15:22:39;100262.50;;;23.59;33.58
58757;BME280;44527;47.460;19.016;2022-09-01T15:25:43;100259.38;;;23.70;35.82
58757;BME280;44527;47.460;19.016;2022-09-01T15:28:46;100265.47;;;23.64;35.92
58757;BME280;44527;47.460;19.016;2022-09-01T15:31:49;100256.84;;;23.69;35.66
58757;BME280;44527;47.460;19.016;2022-09-01T15:34:51;100259.81;;;23.59;34.82
58757;BME280;44527;47.460;19.016;2022-09-01T15:37:54;100261.88;;;23.57;35.61
58757;BME280;44527;47.460;19.016;2022-09-01T15:40:56;100253.69;;;23.29;37.84
58757;BME280;44527;47.460;19.016;2022-09-01T15:44:03;100254.34;;;23.16;35.27
58757;BME280;44527;47.460;19.016;2022-09-01T15:47:06;100254.25;;;23.09;36.33
58757;BME280;44527;47.460;19.016;2022-09-01T15:50:11;100258.41;;;22.97;36.90
58757;BME280;44527;47.460;19.016;2022-09-01T15:53:22;100267.13;;;22.76;37.63
58757;BME280;44527;47.460;19.016;2022-09-01T15:56:25;100266.19;;;22.69;34.94
58757;BME280;44527;47.460;19.016;2022-09-01T15:59:28;100267.28;;;22.60;40.17
58757;BME280;44527;47.460;19.016;2022-09-01T16:02:30;100259.88;;;22.47;34.36
58757;BME280;44527;47.460;19.016;2022-09-01T16:05:35;100260.66;;;22.33;36.78
58757;BME280;44527;47.460;19.016;2022-09-01T16:08:40;100262.31;;;22.11;34.67
58757;BME280;44527;47.460;19.016;2022-09-01T16:11:43;100263.63;;;21.92;35.83
58757;BME280;44527;47.460;19.016;2022-09-01T16:14:45;100261.03;;;21.75;37.17
58757;BME280;44527;47.460;19.016;2022-09-01T16:21:33;100262.50;;;21.47;38.75
58757;BME280;44527;47.460;19.016;2022-09-01T16:24:43;100267.25;;;21.37;38.79
58757;BME280;44527;47.460;19.016;2022-09-01T16:27:46;100263.38;;;21.31;37.81
58757;BME280;44527;47.460;19.016;2022-09-01T16:30:50;100261.56;;;21.23;40.04
58757;BME280;44527;47.460;19.016;2022-09-01T16:33:55;100256.44;;;21.14;39.86
58757;BME280;44527;47.460;19.016;2022-09-01T16:37:03;100255.62;;;21.05;40.23